Time;durP1;ratioP1;P1;durP2;ratioP2;P2;SDS_P1;SDS_P2;PMS_P1;PMS_P2;Temp;Humidity;BMP_temperature;BMP_pressure;BME280_temperature;BME280_humidity;BME280_pressure;Samples;Min_cycle;Max_cycle;Signal;HPM_P1;HPM_P2
2023/01/06 00:07:15;;;;;;;2.33;0.82;;;10.80;99.90;;;;;;20524014;28;21349;-41
2023/01/06 00:17:17;;;;;;;2.13;0.88;;;10.90;99.90;;;;;;20502850;28;20128;-41
2023/01/06 00:27:18;;;;;;;1.45;0.40;;;10.80;99.90;;;;;;20500847;28;20452;-41
2023/01/06 00:37:19;;;;;;;1.05;0.60;;;10.70;99.90;;;;;;20504771;28;20410;-41
2023/01/06 00:47:20;;;;;;;1.83;0.75;;;10.80;99.90;;;;;;20502495;28;20463;-41
2023/01/06 00:57:21;;;;;;;2.33;1.10;;;10.70;99.90;;;;;;20498968;28;20145;-41
2023/01/06 01:07:22;;;;;;;3.33;1.80;;;10.60;99.90;;;;;;20500257;28;20030;-41
2023/01/06 01:17:29;;;;;;;4.43;1.20;;;10.70;99.90;;;;;;20498189;28;20053;-41
2023/01/06 01:27:30;;;;;;;1.63;0.77;;;10.80;99.90;;;;;;20493992;28;20323;-41
2023/01/06 01:37:31;;;;;;;2.78;1.52;;;10.80;99.90;;;;;;20490094;28;20070;-41
2023/01/06 01:47:38;;;;;;;3.17;1.52;;;10.80;99.90;;;;;;20514555;28;20046;-41
2023/01/06 01:58:06;;;;;;;5.67;1.67;;;10.80;99.90;;;;;;20513509;28;20541;-41
2023/01/06 02:08:33;;;;;;;2.53;1.05;;;10.80;99.90;;;;;;20522330;28;20881;-41
2023/01/06 02:18:42;;;;;;;1.63;0.60;;;10.90;99.90;;;;;;20513967;28;20890;-41
2023/01/06 02:28:58;;;;;;;1.58;0.70;;;10.90;99.90;;;;;;20493416;28;22409;-41
2023/01/06 02:39:16;;;;;;;2.40;0.75;;;11.00;99.90;;;;;;20494253;28;20657;-41
2023/01/06 02:49:25;;;;;;;;;;;10.80;99.90;;;;;;20483258;28;21870;-41
2023/01/06 02:59:32;;;;;;;4.20;1.63;;;10.90;99.90;;;;;;20486379;28;19950;-41
2023/01/06 03:09:35;;;;;;;1.23;0.50;;;10.90;99.90;;;;;;20492944;28;20604;-41
2023/01/06 03:19:36;;;;;;;1.90;1.00;;;10.90;99.90;;;;;;20483175;28;20305;-41
2023/01/06 03:29:37;;;;;;;0.93;0.30;;;10.80;99.90;;;;;;20492901;28;20656;-41
2023/01/06 03:40:08;;;;;;;1.25;0.45;;;10.80;99.90;;;;;;20506752;28;20074;-41
2023/01/06 03:50:13;;;;;;;1.23;0.38;;;10.90;99.90;;;;;;20504777;28;20101;-41
2023/01/06 04:00:20;;;;;;;3.30;0.65;;;10.90;99.90;;;;;;20507806;28;20550;-41
2023/01/06 04:10:22;;;;;;;2.08;1.02;;;11.00;99.90;;;;;;20510059;28;20227;-41
2023/01/06 04:20:26;;;;;;;1.52;0.40;;;11.00;99.90;;;;;;20505180;28;20070;-41
2023/01/06 04:30:27;;;;;;;1.45;0.50;;;11.00;99.90;;;;;;20506321;28;20386;-41
2023/01/06 04:40:28;;;;;;;0.68;0.30;;;11.10;99.90;;;;;;20502931;28;20070;-41
2023/01/06 04:50:29;;;;;;;1.13;0.57;;;11.10;99.90;;;;;;20498980;28;20046;-41
2023/01/06 05:00:30;;;;;;;4.97;0.82;;;11.20;99.90;;;;;;20507337;28;20043;-41
2023/01/06 05:10:31;;;;;;;0.80;0.45;;;11.10;99.90;;;;;;20504039;28;20062;-41
2023/01/06 05:20:32;;;;;;;6.00;1.00;;;11.10;99.90;;;;;;20501830;28;20047;-41
2023/01/06 05:30:33;;;;;;;0.63;0.20;;;11.00;99.90;;;;;;20497192;28;20062;-40
2023/01/06 05:40:34;;;;;;;1.15;0.40;;;10.70;99.90;;;;;;20500843;28;20464;-41
2023/01/06 05:50:35;;;;;;;0.75;0.38;;;10.70;99.90;;;;;;20499743;28;22708;-41
2023/01/06 06:00:36;;;;;;;1.10;0.75;;;10.50;99.90;;;;;;20502237;28;20034;-40
2023/01/06 06:10:37;;;;;;;1.05;0.63;;;10.40;99.90;;;;;;20496634;28;20050;-41
2023/01/06 06:20:38;;;;;;;1.13;0.50;;;10.30;99.90;;;;;;20493059;28;20047;-41
2023/01/06 06:30:39;;;;;;;2.10;0.82;;;10.30;99.90;;;;;;20499390;28;20042;-40
2023/01/06 06:40:43;;;;;;;1.50;0.70;;;10.20;99.90;;;;;;20492752;28;20043;-40
2023/01/06 06:50:44;;;;;;;9.50;1.63;;;10.30;99.90;;;;;;20495891;28;20526;-40
2023/01/06 07:00:45;;;;;;;2.42;0.75;;;10.20;99.90;;;;;;20506691;28;20407;-40
2023/01/06 07:10:46;;;;;;;1.15;0.50;;;10.10;99.90;;;;;;20503622;28;20094;-40
2023/01/06 07:20:50;;;;;;;3.03;1.17;;;10.10;99.90;;;;;;20492554;28;20143;-40
2023/01/06 07:30:51;;;;;;;1.77;1.05;;;10.10;99.90;;;;;;20490205;28;20137;-39
2023/01/06 07:40:57;;;;;;;1.63;0.93;;;10.10;99.90;;;;;;20490521;28;20066;-39
2023/01/06 07:50:58;;;;;;;2.10;1.00;;;10.10;99.90;;;;;;20491469;28;20576;-40
2023/01/06 08:01:05;;;;;;;3.30;0.70;;;10.00;99.90;;;;;;20483033;28;20098;-40
2023/01/06 08:11:08;;;;;;;3.13;0.50;;;10.00;99.90;;;;;;20489890;28;20211;-40
2023/01/06 08:21:11;;;;;;;2.30;0.80;;;9.90;99.90;;;;;;20496091;28;20058;-39
2023/01/06 08:31:17;;;;;;;1.77;0.50;;;9.70;99.90;;;;;;20489320;28;20122;-40
2023/01/06 08:41:19;;;;;;;2.23;0.70;;;9.60;99.90;;;;;;20517046;28;20965;-39
2023/01/06 08:51:22;;;;;;;1.83;0.80;;;9.40;99.90;;;;;;20491681;28;20157;-40
2023/01/06 09:01:27;;;;;;;3.95;1.40;;;9.40;99.90;;;;;;20447276;28;20200;-40
2023/01/06 09:11:28;;;;;;;18.73;2.20;;;9.40;99.90;;;;;;20480139;28;20570;-40
2023/01/06 09:21:29;;;;;;;3.42;1.02;;;9.60;99.90;;;;;;20451533;28;20484;-40
2023/01/06 09:31:31;;;;;;;2.67;0.98;;;9.70;99.90;;;;;;20473084;28;20173;-40
2023/01/06 09:42:04;;;;;;;1.08;0.38;;;9.80;99.90;;;;;;20459468;28;20690;-40
2023/01/06 09:52:40;;;;;;;1.30;0.47;;;9.90;99.90;;;;;;20459274;28;22080;-40
2023/01/06 10:02:42;;;;;;;0.90;0.30;;;10.10;99.90;;;;;;20470436;28;21691;-40
2023/01/06 10:13:10;;;;;;;10.50;1.00;;;10.10;99.90;;;;;;20494198;28;20443;-40
2023/01/06 10:23:33;;;;;;;1.13;0.30;;;10.20;99.90;;;;;;20514011;28;20058;-40
2023/01/06 10:33:40;;;;;;;1.38;0.30;;;10.30;99.90;;;;;;20484208;28;20696;-40
2023/01/06 10:43:41;;;;;;;0.63;0.20;;;10.70;99.90;;;;;;20483642;28;20322;-40
2023/01/06 10:53:43;;;;;;;7.53;1.83;;;11.10;99.70;;;;;;20479723;28;20132;-41
2023/01/06 11:03:44;;;;;;;10.60;1.27;;;11.30;98.40;;;;;;20450252;28;20137;-40
2023/01/06 11:13:48;;;;;;;1.48;0.60;;;11.20;96.20;;;;;;20475264;28;20153;-40
2023/01/06 11:24:07;;;;;;;2.25;1.15;;;11.10;97.40;;;;;;20468552;28;20146;-40
2023/01/06 11:34:20;;;;;;;1.73;0.77;;;11.30;97.70;;;;;;20467045;28;20554;-40
2023/01/06 11:44:34;;;;;;;0.70;0.28;;;11.40;97.30;;;;;;20526779;28;20776;-41
2023/01/06 11:54:37;;;;;;;2.00;0.30;;;11.40;97.40;;;;;;20529547;28;20812;-41
2023/01/06 12:04:44;;;;;;;2.00;0.60;;;11.20;94.60;;;;;;20549809;28;20038;-41
2023/01/06 12:14:46;;;;;;;0.98;0.28;;;11.20;95.30;;;;;;20551269;28;20034;-41
2023/01/06 12:24:48;;;;;;;2.28;0.85;;;11.20;95.40;;;;;;20535821;28;20458;-41
2023/01/06 12:34:51;;;;;;;2.38;1.35;;;11.60;94.40;;;;;;20482186;28;20507;-41
2023/01/06 12:45:03;;;;;;;5.40;1.65;;;12.10;91.90;;;;;;20525827;28;20102;-41
2023/01/06 12:55:05;;;;;;;0.93;0.40;;;12.20;86.30;;;;;;20537727;28;20121;-41
2023/01/06 13:05:49;;;;;;;2.38;1.05;;;12.50;80.00;;;;;;20535946;28;20067;-40
2023/01/06 13:15:53;;;;;;;2.20;0.60;;;13.30;71.30;;;;;;20518464;28;20945;-40
2023/01/06 13:26:12;;;;;;;1.83;0.60;;;12.90;74.20;;;;;;20513219;28;20043;-40
2023/01/06 13:36:46;;;;;;;3.15;1.20;;;12.20;77.20;;;;;;20527756;28;20135;-41
2023/01/06 13:46:50;;;;;;;1.17;0.45;;;11.60;80.50;;;;;;20534655;28;20846;-41
2023/01/06 13:57:17;;;;;;;2.03;0.77;;;11.40;84.10;;;;;;20503463;28;20133;-42
2023/01/06 14:07:31;;;;;;;2.22;0.68;;;11.40;89.00;;;;;;20454278;28;20701;-41
2023/01/06 14:17:40;;;;;;;8.02;1.60;;;11.30;86.60;;;;;;20485787;28;20122;-41
2023/01/06 14:27:44;;;;;;;1.02;0.30;;;11.20;89.40;;;;;;20487722;28;22770;-41
2023/01/06 14:38:20;;;;;;;0.90;0.55;;;11.00;91.10;;;;;;20501176;28;20113;-42
2023/01/06 14:48:25;;;;;;;1.05;0.68;;;10.80;93.10;;;;;;20472480;28;20861;-42
2023/01/06 14:58:31;;;;;;;2.08;0.90;;;10.80;93.60;;;;;;20497092;28;20125;-42
2023/01/06 15:08:32;;;;;;;1.08;0.25;;;10.70;93.50;;;;;;20468733;28;20162;-42
2023/01/06 15:18:35;;;;;;;3.85;0.77;;;10.60;93.70;;;;;;20469874;28;20074;-42
2023/01/06 15:28:37;;;;;;;2.22;1.10;;;10.40;93.40;;;;;;20452309;28;20803;-42
2023/01/06 15:38:40;;;;;;;1.42;0.75;;;10.30;95.20;;;;;;20463837;28;20102;-42
2023/01/06 15:48:46;;;;;;;1.20;0.50;;;10.30;96.80;;;;;;20485677;28;20117;-42
2023/01/06 15:58:49;;;;;;;1.58;0.85;;;10.10;97.10;;;;;;20490978;28;20193;-42
2023/01/06 16:08:50;;;;;;;2.95;1.00;;;10.00;98.00;;;;;;20484470;28;20234;-42
2023/01/06 16:18:53;;;;;;;7.18;1.83;;;9.90;99.10;;;;;;20478517;28;20164;-42
2023/01/06 16:29:00;;;;;;;1.90;1.00;;;9.90;99.90;;;;;;20481726;28;20174;-42
2023/01/06 16:39:04;;;;;;;0.87;0.60;;;9.80;99.90;;;;;;20522609;28;20246;-42
2023/01/06 16:49:09;;;;;;;3.08;1.27;;;9.70;99.90;;;;;;20542202;28;20558;-42
2023/01/06 16:59:12;;;;;;;4.72;1.60;;;9.70;99.90;;;;;;20523844;28;20046;-42
2023/01/06 17:09:19;;;;;;;3.55;1.83;;;9.70;99.90;;;;;;20538003;28;20034;-42
2023/01/06 17:19:26;;;;;;;2.77;1.27;;;9.50;99.90;;;;;;20538736;28;20580;-42
2023/01/06 17:29:31;;;;;;;5.75;1.98;;;9.60;99.90;;;;;;20532779;28;20481;-42
2023/01/06 17:39:41;;;;;;;11.27;3.00;;;9.60;99.90;;;;;;20537881;28;20046;-42
2023/01/06 17:49:53;;;;;;;2.05;0.77;;;9.60;99.90;;;;;;20525317;28;21915;-42
2023/01/06 17:59:55;;;;;;;6.20;1.92;;;9.70;99.90;;;;;;20535219;28;20054;-42
2023/01/06 18:09:56;;;;;;;3.20;1.77;;;9.70;99.90;;;;;;20539521;28;20074;-42
2023/01/06 18:19:57;;;;;;;3.60;1.80;;;9.70;99.90;;;;;;20531293;28;20054;-42
2023/01/06 18:30:16;;;;;;;8.60;1.55;;;9.80;99.90;;;;;;20530256;28;20439;-42
2023/01/06 18:40:23;;;;;;;2.25;1.50;;;9.90;99.90;;;;;;20534133;28;20868;-42
2023/01/06 18:50:31;;;;;;;7.40;3.30;;;9.90;99.90;;;;;;20531439;28;20027;-42
2023/01/06 19:00:39;;;;;;;5.30;2.83;;;10.00;99.90;;;;;;20443669;28;20122;-42
2023/01/06 19:10:44;;;;;;;4.95;2.38;;;10.00;99.90;;;;;;20477502;28;20205;-42
2023/01/06 19:20:46;;;;;;;5.85;2.72;;;10.10;99.90;;;;;;20497708;28;20142;-42
2023/01/06 19:30:54;;;;;;;4.85;3.47;;;10.20;99.90;;;;;;20503202;28;20059;-42
2023/01/06 19:40:59;;;;;;;5.82;3.03;;;10.30;99.90;;;;;;20490342;28;20474;-42
2023/01/06 19:51:22;;;;;;;7.72;4.40;;;10.30;99.90;;;;;;20465439;28;20039;-42
2023/01/06 20:01:24;;;;;;;7.43;4.35;;;10.30;99.90;;;;;;20490163;28;20264;-43
2023/01/06 20:11:24;;;;;;;24.77;4.28;;;10.40;99.90;;;;;;20488510;28;20514;-42
2023/01/06 20:21:25;;;;;;;5.57;3.47;;;10.50;99.90;;;;;;20488932;28;20511;-42
2023/01/06 20:31:27;;;;;;;4.30;2.42;;;10.60;99.90;;;;;;20498991;28;20490;-42
2023/01/06 20:41:30;;;;;;;4.85;2.58;;;10.80;99.90;;;;;;20500111;28;20122;-42
2023/01/06 20:51:31;;;;;;;6.72;3.53;;;11.00;99.90;;;;;;20504948;28;20527;-43
2023/01/06 21:01:32;;;;;;;6.97;3.28;;;11.10;99.90;;;;;;20512218;28;20330;-42
2023/01/06 21:11:33;;;;;;;7.82;3.67;;;11.20;99.90;;;;;;20473177;28;20058;-42
2023/01/06 21:21:34;;;;;;;5.60;2.78;;;11.30;99.90;;;;;;20483939;28;20090;-42
2023/01/06 21:31:36;;;;;;;4.93;2.55;;;11.30;99.90;;;;;;20500959;28;20181;-42
2023/01/06 21:51:58;;;;;;;8.55;4.85;;;11.30;99.90;;;;;;20491079;28;20459;-42
2023/01/06 22:01:59;;;;;;;5.15;3.25;;;11.20;99.90;;;;;;20494885;28;20110;-42
2023/01/06 22:12:02;;;;;;;6.60;3.63;;;11.20;99.90;;;;;;20466103;28;20121;-42
2023/01/06 22:22:04;;;;;;;5.50;3.63;;;11.20;99.90;;;;;;20513912;28;20043;-42
2023/01/06 22:32:05;;;;;;;6.93;4.25;;;11.20;99.90;;;;;;20522496;28;20054;-41
2023/01/06 22:42:06;;;;;;;8.50;4.28;;;11.20;99.90;;;;;;20502657;28;20138;-43
2023/01/06 22:52:08;;;;;;;8.13;5.03;;;11.20;99.90;;;;;;20510788;28;20141;-42
2023/01/06 23:02:08;;;;;;;6.18;3.88;;;11.10;99.90;;;;;;20504350;28;20039;-42
2023/01/06 23:12:10;;;;;;;5.50;3.40;;;11.00;99.90;;;;;;20513368;28;20042;-41
2023/01/06 23:22:11;;;;;;;7.22;3.60;;;11.00;99.90;;;;;;20512260;28;20046;-41
2023/01/06 23:32:12;;;;;;;6.95;3.03;;;11.00;99.90;;;;;;20513622;28;20042;-41
2023/01/06 23:42:13;;;;;;;5.20;2.88;;;11.00;99.90;;;;;;20509479;28;20090;-41
2023/01/06 23:52:14;;;;;;;4.70;3.10;;;11.00;99.90;;;;;;20517497;28;20038;-42
